Aérodrome :
LOGIN :

S'inscrire | Disclaimer

   EN    FR    IT 

 










Légende :    VFR   VFR Marginal   IFR   IFR Intensif   IFR Très Intensif
Visi : 
Plafond : 
>= 8 km
>= 3000ft
5 à 8 km
1000 à 3000 ft
1500m à 5 km
500 à 1000 ft
800 à 1500m
200 à 500 ft
< 800m
< 200 ft
Symboles :   Orages  Brouillard  Fortes neiges  Fortes précipitations  Vent > 20 kt
SIGMETs :   Divers  Orages  Givrage  Turbulence  Onde Orograph.  Cendres Volcan.







- Altitude de l'aérodrome : 82 ft
- Code IATA : AAR


EKAH - Aarhus Tirstrup

DERNIER METAR :
  • 211150Z AUTO 25008KT 210V280 9999NDV BKN017/// BKN044/// 13/10 Q1027

METARs EXPIRÉS :
  • 211120Z AUTO 24011KT 190V270 9999NDV BKN016/// BKN033/// BKN048/// 13/10 Q1026
  • 211050Z AUTO 24009KT 200V280 9999NDV BKN016/// OVC032/// 12/09 Q1026
  • 211020Z AUTO 23008KT 190V270 9999NDV BKN015/// 12/09 Q1026
  • 210950Z AUTO 23006G16KT 170V280 9999NDV BKN014/// 12/09 Q1026
  • 210920Z AUTO 22008KT 180V260 8000NDV BKN011/// BKN030/// 11/09 Q1026

TAF TAF EKAH
Valide du 21 à 12h jusqu'au 22 à 12h UTC


211112Z 2112/2212 23010KT 9999 BKN015
TEMPO 2112/2124 2500 BR BKN005
TEMPO 2200/2212 0800 FG BKN002
Pas de NOTAMs connus pour ce terrain.



MET'MAP, la Météo Aéronautique d'un coup d'oeil ! - Copyright ORBIFLY Décembre 2007 - Disclaimer

ORBIFLY MET'MAP TEAM :

Programmation & Développement : Alexandra Zaïnal
Conception & Développement : Baudouin d'Aumeries
Co-Programmation & Développement : Marc-Olivier Méhu
Soutien technique & logistique : Manuel Goepfert

Contact : metmap@orbifly.com




SOURCES & CREDITS :

   NOAA